createdAt,value
2022-09-15T00:00:31.174Z,20.46
2022-09-15T00:05:33.830Z,20.46
2022-09-15T00:10:37.867Z,20.43
2022-09-15T00:15:40.688Z,20.43
2022-09-15T00:20:45.171Z,20.43
2022-09-15T00:25:50.733Z,20.41
2022-09-15T00:30:54.915Z,20.40
2022-09-15T00:35:57.793Z,20.38
2022-09-15T00:41:02.363Z,20.36
2022-09-15T00:46:05.186Z,20.29
2022-09-15T00:51:09.668Z,20.28
2022-09-15T00:56:15.538Z,20.25
2022-09-15T01:01:18.709Z,20.24
2022-09-15T01:06:26.457Z,20.20
2022-09-15T01:11:31.229Z,20.18
2022-09-15T01:16:41.393Z,20.17
2022-09-15T01:21:46.791Z,20.15
2022-09-15T01:27:00.097Z,20.10
2022-09-15T01:32:26.148Z,20.09
2022-09-15T01:37:31.670Z,20.12
2022-09-15T01:42:35.225Z,20.10
2022-09-15T01:47:40.563Z,20.07
2022-09-15T01:52:45.681Z,20.06
2022-09-15T01:57:48.462Z,20.04
2022-09-15T02:02:57.813Z,20.00
2022-09-15T02:08:05.080Z,20.00
2022-09-15T02:13:13.179Z,19.97
2022-09-15T02:18:19.224Z,19.98
2022-09-15T02:23:26.827Z,19.94
2022-09-15T02:28:32.019Z,19.92
2022-09-15T02:33:38.753Z,19.89
2022-09-15T02:38:46.387Z,19.88
2022-09-15T02:43:50.246Z,19.86
2022-09-15T02:48:54.334Z,19.83
2022-09-15T02:53:57.029Z,19.83
2022-09-15T02:58:59.769Z,19.80
2022-09-15T03:04:05.188Z,19.78
2022-09-15T03:09:08.981Z,19.78
2022-09-15T03:14:11.845Z,19.75
2022-09-15T03:19:15.966Z,19.72
2022-09-15T03:24:19.715Z,19.72
2022-09-15T03:29:22.479Z,19.69
2022-09-15T03:34:26.701Z,19.69
2022-09-15T03:39:29.484Z,19.66
2022-09-15T03:44:32.260Z,19.64
2022-09-15T03:49:40.223Z,19.66
2022-09-15T03:54:42.947Z,19.65
2022-09-15T03:59:45.653Z,19.67
2022-09-15T04:04:49.745Z,19.66
2022-09-15T04:09:52.540Z,19.68
2022-09-15T04:14:55.490Z,19.66
2022-09-15T04:19:59.620Z,19.66
2022-09-15T04:25:02.365Z,19.70
2022-09-15T04:30:05.974Z,19.71
2022-09-15T04:35:11.104Z,19.69
2022-09-15T04:40:14.134Z,19.73
2022-09-15T04:45:17.051Z,19.69
2022-09-15T04:50:21.071Z,19.71
2022-09-15T04:55:23.770Z,19.71
2022-09-15T05:00:27.033Z,19.71
2022-09-15T05:05:31.104Z,19.71
2022-09-15T05:10:34.105Z,19.69
2022-09-15T05:15:36.867Z,19.67
2022-09-15T05:20:40.897Z,19.66
2022-09-15T05:25:43.585Z,19.65
2022-09-15T05:30:46.274Z,19.69
2022-09-15T05:35:53.868Z,19.70
2022-09-15T05:41:02.812Z,19.72
2022-09-15T05:46:06.501Z,19.73
2022-09-15T05:51:10.724Z,19.71
2022-09-15T05:56:14.947Z,19.72
2022-09-15T06:01:19.353Z,19.74
2022-09-15T06:06:24.342Z,19.74
2022-09-15T06:11:28.643Z,19.76
2022-09-15T06:16:33.352Z,19.77
2022-09-15T06:21:37.507Z,19.79
2022-09-15T06:26:40.336Z,19.79
2022-09-15T06:31:43.074Z,19.77
2022-09-15T06:36:47.210Z,19.77
2022-09-15T06:42:02.339Z,19.79
2022-09-15T06:47:07.262Z,19.82
2022-09-15T06:52:11.415Z,19.84
2022-09-15T06:57:14.264Z,19.89
2022-09-15T07:02:17.017Z,19.95
2022-09-15T07:07:21.186Z,19.93
2022-09-15T07:12:23.859Z,19.96
2022-09-15T07:17:27.292Z,19.95
2022-09-15T07:22:31.586Z,19.98
2022-09-15T07:27:34.252Z,19.96
2022-09-15T07:32:37.302Z,20.00
2022-09-15T07:37:41.337Z,20.02
2022-09-15T07:42:44.354Z,20.01
2022-09-15T07:47:47.113Z,20.03
2022-09-15T07:52:51.206Z,20.08
2022-09-15T07:57:59.956Z,20.07
2022-09-15T08:03:02.656Z,20.14
2022-09-15T08:08:06.965Z,20.17
2022-09-15T08:13:09.742Z,20.22
2022-09-15T08:18:12.572Z,20.24
2022-09-15T08:23:16.668Z,20.26
2022-09-15T08:28:19.392Z,20.29
2022-09-15T08:33:22.363Z,20.37
2022-09-15T08:38:26.497Z,20.35
2022-09-15T08:43:32.513Z,20.41
2022-09-15T08:48:39.860Z,20.36
2022-09-15T08:53:46.776Z,20.41
2022-09-15T08:58:50.795Z,20.46
2022-09-15T09:04:23.935Z,20.66
2022-09-15T09:09:34.061Z,20.67
2022-09-15T09:14:45.971Z,20.65
2022-09-15T09:19:59.222Z,20.69
2022-09-15T09:25:21.131Z,20.81
2022-09-15T09:30:30.619Z,20.96
2022-09-15T09:35:35.528Z,21.00
2022-09-15T09:40:41.413Z,20.99
2022-09-15T09:45:45.859Z,20.97
2022-09-15T09:50:49.613Z,21.05
2022-09-15T09:55:55.101Z,21.05
2022-09-15T10:01:10.630Z,21.06
2022-09-15T10:06:18.178Z,21.06
2022-09-15T10:11:23.977Z,21.12
2022-09-15T10:16:27.603Z,21.12
2022-09-15T10:21:30.416Z,21.12
2022-09-15T10:26:36.007Z,21.12
2022-09-15T10:31:38.735Z,21.08
2022-09-15T10:36:41.493Z,21.11
2022-09-15T10:41:49.062Z,21.08
2022-09-15T10:47:05.740Z,21.03
2022-09-15T10:52:15.080Z,21.07
2022-09-15T10:57:33.096Z,21.11
2022-09-15T11:03:06.874Z,21.16
2022-09-15T11:08:38.636Z,21.16
2022-09-15T11:13:51.270Z,21.12
2022-09-15T11:19:03.735Z,21.13
2022-09-15T11:24:25.203Z,21.18
2022-09-15T11:29:32.219Z,21.16
2022-09-15T11:34:37.600Z,21.24
2022-09-15T11:39:45.600Z,21.25
2022-09-15T11:44:49.834Z,21.26
2022-09-15T11:49:57.072Z,21.22
2022-09-15T11:55:04.682Z,21.22
2022-09-15T12:00:13.410Z,21.17
2022-09-15T12:05:19.479Z,21.13
2022-09-15T12:10:24.758Z,21.11
2022-09-15T12:15:29.400Z,21.06
2022-09-15T12:20:37.015Z,21.03
2022-09-15T12:25:45.064Z,20.97
2022-09-15T12:30:50.412Z,20.96
2022-09-15T12:35:53.252Z,20.95
2022-09-15T12:40:58.950Z,20.98
2022-09-15T12:46:03.272Z,21.04
2022-09-15T12:51:10.363Z,21.03
2022-09-15T12:56:23.569Z,21.04
2022-09-15T13:01:49.747Z,21.01
2022-09-15T13:07:24.938Z,21.01
2022-09-15T13:12:32.082Z,21.00
2022-09-15T13:17:36.364Z,21.02
2022-09-15T13:22:43.953Z,21.03
2022-09-15T13:27:49.656Z,21.04
2022-09-15T13:32:58.840Z,21.05
2022-09-15T13:38:32.406Z,21.06
2022-09-15T13:43:50.423Z,21.02
2022-09-15T13:49:19.304Z,21.09
2022-09-15T13:54:22.049Z,21.07
2022-09-15T13:59:28.349Z,21.03
2022-09-15T14:04:32.920Z,21.03
2022-09-15T14:09:39.782Z,21.04
2022-09-15T14:14:44.535Z,21.00
2022-09-15T14:19:49.932Z,20.98
2022-09-15T14:24:54.024Z,20.95
2022-09-15T14:29:58.369Z,20.92
2022-09-15T14:35:06.448Z,20.88
2022-09-15T14:40:19.955Z,20.86
2022-09-15T14:50:57.669Z,20.82
2022-09-15T14:56:07.897Z,20.79
2022-09-15T15:01:15.642Z,20.78
2022-09-15T15:06:29.455Z,20.76
2022-09-15T15:11:34.516Z,20.77
2022-09-15T15:16:38.090Z,20.76
2022-09-15T15:21:43.636Z,20.79
2022-09-15T15:26:47.154Z,20.79
2022-09-15T15:31:49.951Z,20.77
2022-09-15T15:37:03.298Z,20.76
2022-09-15T15:42:08.934Z,20.79
2022-09-15T15:47:25.539Z,20.79
2022-09-15T15:52:29.619Z,20.80
2022-09-15T15:57:36.311Z,20.76
2022-09-15T16:02:39.050Z,20.74
2022-09-15T16:07:43.897Z,20.72
2022-09-15T16:12:46.650Z,20.71
2022-09-15T16:17:49.828Z,20.70
2022-09-15T16:22:53.959Z,20.70
2022-09-15T16:27:56.788Z,20.66
2022-09-15T16:32:59.618Z,20.68
2022-09-15T16:38:03.718Z,20.65
2022-09-15T16:43:11.076Z,20.65
2022-09-15T16:48:14.008Z,20.60
2022-09-15T16:53:19.668Z,20.57
2022-09-15T16:58:23.163Z,20.55
2022-09-15T17:03:26.947Z,20.53
2022-09-15T17:08:32.652Z,20.50
2022-09-15T17:13:35.471Z,20.49
2022-09-15T17:18:38.183Z,20.50
2022-09-15T17:23:44.590Z,20.48
2022-09-15T17:28:47.785Z,20.45
2022-09-15T17:33:53.037Z,20.45
2022-09-15T17:38:57.138Z,20.42
2022-09-15T17:43:59.898Z,20.40
2022-09-15T17:49:02.589Z,20.38
2022-09-15T17:54:07.403Z,20.35
2022-09-15T17:59:13.073Z,20.35
2022-09-15T18:04:18.919Z,20.34
2022-09-15T18:09:23.039Z,20.32
2022-09-15T18:14:25.798Z,20.30
2022-09-15T18:19:28.594Z,20.28
2022-09-15T18:24:32.643Z,20.27
2022-09-15T18:29:35.445Z,20.23
2022-09-15T18:34:38.183Z,20.23
2022-09-15T18:39:42.345Z,20.22
2022-09-15T18:44:45.222Z,20.21
2022-09-15T18:49:47.987Z,20.16
2022-09-15T18:54:55.981Z,20.17
2022-09-15T18:59:58.705Z,20.15
2022-09-15T19:05:01.433Z,20.15
2022-09-15T19:10:06.258Z,20.12
2022-09-15T19:15:11.258Z,20.09
2022-09-15T19:20:15.996Z,20.09
2022-09-15T19:25:21.363Z,20.07
2022-09-15T19:30:24.092Z,20.07
2022-09-15T19:35:26.832Z,20.08
2022-09-15T19:40:31.519Z,20.04
2022-09-15T19:45:35.152Z,20.01
2022-09-15T19:50:39.256Z,19.99
2022-09-15T19:55:43.375Z,20.00
2022-09-15T20:00:52.976Z,19.96
2022-09-15T20:05:57.596Z,19.95
2022-09-15T20:11:05.380Z,19.93
2022-09-15T20:16:08.911Z,19.92
2022-09-15T20:21:21.756Z,19.89
2022-09-15T20:26:32.014Z,19.86
2022-09-15T20:31:35.038Z,19.85
2022-09-15T20:36:39.347Z,19.86
2022-09-15T20:41:45.668Z,19.80
2022-09-15T20:46:48.495Z,19.82
2022-09-15T20:51:51.606Z,19.80
2022-09-15T20:56:55.855Z,19.78
2022-09-15T21:01:58.658Z,19.76
2022-09-15T21:07:01.425Z,19.74
2022-09-15T21:12:06.054Z,19.74
2022-09-15T21:17:08.757Z,19.66
2022-09-15T21:22:11.495Z,19.72
2022-09-15T21:27:27.377Z,19.71
2022-09-15T21:32:30.299Z,19.67
2022-09-15T21:37:33.109Z,19.65
2022-09-15T21:42:37.282Z,19.66
2022-09-15T21:47:39.919Z,19.61
2022-09-15T21:52:42.614Z,19.60
2022-09-15T21:57:47.055Z,19.58
2022-09-15T22:02:52.212Z,19.55
2022-09-15T22:07:55.161Z,19.55
2022-09-15T22:13:04.087Z,19.54
2022-09-15T22:18:07.383Z,19.53
2022-09-15T22:23:10.332Z,19.52
2022-09-15T22:28:14.380Z,19.46
2022-09-15T22:33:17.129Z,19.48
2022-09-15T22:38:19.898Z,19.45
2022-09-15T22:43:24.521Z,19.48
2022-09-15T22:48:27.226Z,19.45
2022-09-15T22:53:29.911Z,19.45
2022-09-15T22:58:34.277Z,19.44
2022-09-15T23:03:37.082Z,19.44
2022-09-15T23:08:39.936Z,19.42
2022-09-15T23:13:44.033Z,19.42
2022-09-15T23:18:46.840Z,19.43
2022-09-15T23:23:50.309Z,19.40
2022-09-15T23:28:54.733Z,19.40
2022-09-15T23:33:57.495Z,19.39
2022-09-15T23:39:00.298Z,19.36
2022-09-15T23:44:05.005Z,19.36
2022-09-15T23:49:07.812Z,19.37
2022-09-15T23:54:11.222Z,19.35
2022-09-15T23:59:15.455Z,19.30
